Terminal Aerodrome Forecast
Issued by NWS

Current Version | Previous Version | Text Only | Print | Product List | Glossary On
Versions: 1 2 3 4 5 6 7 8 9 10 11 12 13 14 15 16 17 18
000
FTUS46 KOTX 280535
TAFMWH
TAF
KMWH 280535Z 2806/0106 30008KT P6SM BKN120
     FM281200 32004KT P6SM SKC
     FM282000 25007KT P6SM FEW040
     FM010000 22006KT P6SM FEW100=

USA.gov is the U.S. government's official web portal to all federal, state and local government web resources and services.